Burns Harbor, Indiana
Current Conditions -  °F | °C
As of 1:56 PM on Saturday 25 Oct 2014 (Local Time) from KVPZ Reporting Station
Clear Clear  
Wind Chill: 71°   Ceiling: Unl
Heat Index: 71°   Visibility: 10mi
Dew Point: 44°   Wind: 14mph
Humidity: 38%   Direction: 280°W
Pressure: 29.92"   Gusts: NA
Location:  41.6139°N, 87.0454°W
Report Text: KVPZ 251856Z AUTO 28012KT 10SM CLR 22/07 A2992 RMK AO2 SLP129 T02170067 TSNO
Loading
Personal Weather Stations






























Interactive Weather Map
Tropical Storm Tracking
New forecast layout! Learn more

10-Day Weather Forecast

Advertisements
Track Severe Weather on mobile